Ir al Módulo  



logo_vatsim
logo_vatsur

 


NUEVO SECTOR FILE COLOMBIA
Octubre 16 de 2014

Los invitamos a descargar el nuevo SectorFile de Colombia!




Nuevo Escenario de Bogotá Recomendado
Septiembre 26 de 2014

Los invitamos a conocer el escenario desarrollado por LR30 Scenery Design de SKBO. Vatsim Colombia lo reconoce como escenario oficial de la red.

Links:

FS9: http://www.mediafire.com/download/gfuqcb7qb8r9q9n/BOG_2014_FS9.rar
FSX: http://www.mediafire.com/download/b8831kleqc5nc13/LR30_SKBO_V2.rar




 

 
Untitled Document
SKAR 282100Z 00000KT 9999 SCT025 29/18 A2990
SKBG 282200Z 32004KT 9999 SCT015TCU SCT090 23/19 A2989 RMK TCU/SE
SKBO 282200Z 26012KT 9999 SCT020 17/10 A3021
SKBQ 282200Z 02012KT 9999 SCT015 27/24 A2978
SKCG 282100Z 02012KT 9999 FEW017 30/23 A2976
SKCL 282200Z 34010KT 90 29/19 A2980
SKPE 282200Z 26004KT 9999 FEW023 SCT090 28/17 A2989
SKRG 282100Z 06007KT 9999 FEW018TCU BKN100 18/13 A3019 RMK TCU E/NW